sensor_id;sensor_type;location;lat;lon;timestamp;pressure;altitude;pressure_sealevel;temperature;humidity
70982;BME280;58640;51.320;9.456;2023-04-10T00:01:13;100069.41;;;5.26;80.30
70982;BME280;58640;51.320;9.456;2023-04-10T00:03:38;100077.66;;;5.23;80.08
70982;BME280;58640;51.320;9.456;2023-04-10T00:06:04;100069.53;;;5.25;80.44
70982;BME280;58640;51.320;9.456;2023-04-10T00:08:29;100078.09;;;5.28;80.17
70982;BME280;58640;51.320;9.456;2023-04-10T00:10:55;100070.72;;;5.21;81.07
70982;BME280;58640;51.320;9.456;2023-04-10T00:13:21;100076.78;;;5.23;80.99
70982;BME280;58640;51.320;9.456;2023-04-10T00:15:46;100074.13;;;5.23;80.99
70982;BME280;58640;51.320;9.456;2023-04-10T00:18:12;100081.16;;;5.24;80.47
70982;BME280;58640;51.320;9.456;2023-04-10T00:20:37;100087.00;;;5.18;80.97
70982;BME280;58640;51.320;9.456;2023-04-10T00:23:03;100077.56;;;5.14;81.19
70982;BME280;58640;51.320;9.456;2023-04-10T00:25:28;100076.31;;;5.18;81.30
70982;BME280;58640;51.320;9.456;2023-04-10T00:27:53;100079.00;;;5.18;81.35
70982;BME280;58640;51.320;9.456;2023-04-10T00:30:19;100073.16;;;5.24;80.82
70982;BME280;58640;51.320;9.456;2023-04-10T00:32:45;100071.00;;;5.18;81.18
70982;BME280;58640;51.320;9.456;2023-04-10T00:35:10;100070.16;;;5.06;81.62
70982;BME280;58640;51.320;9.456;2023-04-10T00:37:36;100065.06;;;5.14;81.33
70982;BME280;58640;51.320;9.456;2023-04-10T00:40:02;100068.50;;;5.05;82.01
70982;BME280;58640;51.320;9.456;2023-04-10T00:42:28;100061.78;;;5.11;81.42
70982;BME280;58640;51.320;9.456;2023-04-10T00:44:53;100067.97;;;5.11;81.29
70982;BME280;58640;51.320;9.456;2023-04-10T00:47:19;100066.78;;;5.04;81.87
70982;BME280;58640;51.320;9.456;2023-04-10T00:49:44;100074.69;;;4.95;82.41
70982;BME280;58640;51.320;9.456;2023-04-10T00:52:10;100068.53;;;4.94;82.30
70982;BME280;58640;51.320;9.456;2023-04-10T00:54:36;100066.81;;;4.93;82.46
70982;BME280;58640;51.320;9.456;2023-04-10T00:57:02;100061.84;;;4.89;82.63
70982;BME280;58640;51.320;9.456;2023-04-10T00:59:29;100058.13;;;4.91;82.64
70982;BME280;58640;51.320;9.456;2023-04-10T01:01:54;100059.53;;;4.95;82.57
70982;BME280;58640;51.320;9.456;2023-04-10T01:04:21;100064.91;;;4.84;83.15
70982;BME280;58640;51.320;9.456;2023-04-10T01:07:03;100066.72;;;4.84;83.36
70982;BME280;58640;51.320;9.456;2023-04-10T01:14:47;100068.94;;;4.79;83.07
70982;BME280;58640;51.320;9.456;2023-04-10T01:17:20;100065.19;;;4.70;83.63
70982;BME280;58640;51.320;9.456;2023-04-10T01:20:25;100064.56;;;4.67;83.65
70982;BME280;58640;51.320;9.456;2023-04-10T01:26:02;100072.31;;;4.70;83.89
70982;BME280;58640;51.320;9.456;2023-04-10T01:29:20;100060.69;;;4.71;83.61
70982;BME280;58640;51.320;9.456;2023-04-10T01:31:52;100063.34;;;4.60;84.54
70982;BME280;58640;51.320;9.456;2023-04-10T01:34:21;100062.50;;;4.81;83.45
70982;BME280;58640;51.320;9.456;2023-04-10T01:37:11;100064.44;;;4.68;84.03
70982;BME280;58640;51.320;9.456;2023-04-10T01:39:38;100067.00;;;4.59;85.02
70982;BME280;58640;51.320;9.456;2023-04-10T01:42:06;100058.75;;;4.62;84.57
70982;BME280;58640;51.320;9.456;2023-04-10T01:44:35;100060.81;;;4.58;84.68
70982;BME280;58640;51.320;9.456;2023-04-10T01:47:01;100063.34;;;4.60;84.44
70982;BME280;58640;51.320;9.456;2023-04-10T01:49:27;100060.00;;;4.58;84.26
70982;BME280;58640;51.320;9.456;2023-04-10T01:51:55;100058.66;;;4.52;84.59
70982;BME280;58640;51.320;9.456;2023-04-10T01:54:30;100067.75;;;4.49;84.65
70982;BME280;58640;51.320;9.456;2023-04-10T01:56:58;100067.00;;;4.47;84.65
70982;BME280;58640;51.320;9.456;2023-04-10T01:59:23;100056.13;;;4.39;84.88
70982;BME280;58640;51.320;9.456;2023-04-10T02:01:55;100056.59;;;4.44;84.84
70982;BME280;58640;51.320;9.456;2023-04-10T02:04:21;100045.94;;;4.44;84.62
70982;BME280;58640;51.320;9.456;2023-04-10T02:06:59;100046.78;;;4.34;85.06
70982;BME280;58640;51.320;9.456;2023-04-10T02:09:52;100044.75;;;4.26;85.51
70982;BME280;58640;51.320;9.456;2023-04-10T02:12:27;100050.19;;;4.25;85.59
70982;BME280;58640;51.320;9.456;2023-04-10T02:14:54;100052.25;;;4.10;86.34
70982;BME280;58640;51.320;9.456;2023-04-10T02:17:25;100058.66;;;4.08;86.28
70982;BME280;58640;51.320;9.456;2023-04-10T02:19:53;100062.06;;;4.10;86.11
70982;BME280;58640;51.320;9.456;2023-04-10T02:22:19;100048.00;;;3.97;86.82
70982;BME280;58640;51.320;9.456;2023-04-10T02:24:46;100049.81;;;3.96;87.04
70982;BME280;58640;51.320;9.456;2023-04-10T02:27:11;100050.44;;;4.00;86.61
70982;BME280;58640;51.320;9.456;2023-04-10T02:29:37;100059.38;;;3.99;86.75
70982;BME280;58640;51.320;9.456;2023-04-10T02:32:03;100053.69;;;4.03;86.31
70982;BME280;58640;51.320;9.456;2023-04-10T02:34:28;100054.78;;;4.01;86.47
70982;BME280;58640;51.320;9.456;2023-04-10T02:36:54;100047.28;;;3.95;86.52
70982;BME280;58640;51.320;9.456;2023-04-10T02:39:19;100047.78;;;4.00;85.86
70982;BME280;58640;51.320;9.456;2023-04-10T02:41:44;100043.50;;;3.97;86.08
70982;BME280;58640;51.320;9.456;2023-04-10T02:44:11;100048.38;;;4.03;85.42
70982;BME280;58640;51.320;9.456;2023-04-10T02:46:36;100045.91;;;3.89;86.04
70982;BME280;58640;51.320;9.456;2023-04-10T02:49:01;100050.28;;;3.90;86.16
70982;BME280;58640;51.320;9.456;2023-04-10T02:51:27;100049.31;;;3.91;85.80
70982;BME280;58640;51.320;9.456;2023-04-10T02:53:52;100041.69;;;3.87;86.03
70982;BME280;58640;51.320;9.456;2023-04-10T02:56:17;100038.31;;;3.85;86.24
70982;BME280;58640;51.320;9.456;2023-04-10T02:58:43;100042.78;;;3.84;86.17
70982;BME280;58640;51.320;9.456;2023-04-10T03:01:10;100036.13;;;3.79;86.40
70982;BME280;58640;51.320;9.456;2023-04-10T03:03:36;100036.72;;;3.71;86.89
70982;BME280;58640;51.320;9.456;2023-04-10T03:06:01;100035.50;;;3.86;86.12
70982;BME280;58640;51.320;9.456;2023-04-10T03:08:26;100031.66;;;3.79;86.36
70982;BME280;58640;51.320;9.456;2023-04-10T03:10:52;100031.91;;;3.87;86.18
70982;BME280;58640;51.320;9.456;2023-04-10T03:13:17;100036.50;;;3.85;86.02
70982;BME280;58640;51.320;9.456;2023-04-10T03:15:42;100023.56;;;3.81;86.06
70982;BME280;58640;51.320;9.456;2023-04-10T03:18:08;100022.69;;;3.69;86.56
70982;BME280;58640;51.320;9.456;2023-04-10T03:20:35;100027.13;;;3.58;87.24
70982;BME280;58640;51.320;9.456;2023-04-10T03:23:01;100027.00;;;3.59;87.35
70982;BME280;58640;51.320;9.456;2023-04-10T03:25:27;100025.06;;;3.50;87.83
70982;BME280;58640;51.320;9.456;2023-04-10T03:27:52;100028.19;;;3.44;88.54
70982;BME280;58640;51.320;9.456;2023-04-10T03:30:17;100029.13;;;3.43;88.69
70982;BME280;58640;51.320;9.456;2023-04-10T03:32:43;100012.00;;;3.47;88.49
70982;BME280;58640;51.320;9.456;2023-04-10T03:35:09;100021.19;;;3.54;87.89
70982;BME280;58640;51.320;9.456;2023-04-10T03:37:35;100015.41;;;3.49;87.91
70982;BME280;58640;51.320;9.456;2023-04-10T03:40:01;100014.53;;;3.49;88.21
70982;BME280;58640;51.320;9.456;2023-04-10T03:42:27;100015.13;;;3.41;88.57
70982;BME280;58640;51.320;9.456;2023-04-10T03:44:52;100010.88;;;3.39;89.16
70982;BME280;58640;51.320;9.456;2023-04-10T03:47:17;100009.44;;;3.35;89.36
70982;BME280;58640;51.320;9.456;2023-04-10T03:49:43;100012.91;;;3.35;89.18
70982;BME280;58640;51.320;9.456;2023-04-10T03:52:08;100003.16;;;3.36;88.78
70982;BME280;58640;51.320;9.456;2023-04-10T03:54:34;100006.53;;;3.38;88.95
70982;BME280;58640;51.320;9.456;2023-04-10T03:56:59;99999.34;;;3.27;89.32
70982;BME280;58640;51.320;9.456;2023-04-10T03:59:25;100003.84;;;3.27;89.26
70982;BME280;58640;51.320;9.456;2023-04-10T04:01:51;100013.66;;;3.37;88.84
70982;BME280;58640;51.320;9.456;2023-04-10T04:04:17;100008.44;;;3.25;89.37
70982;BME280;58640;51.320;9.456;2023-04-10T04:06:42;99999.97;;;3.31;88.95
70982;BME280;58640;51.320;9.456;2023-04-10T04:09:07;100008.19;;;3.28;88.99
70982;BME280;58640;51.320;9.456;2023-04-10T04:11:33;100004.69;;;3.27;88.83
70982;BME280;58640;51.320;9.456;2023-04-10T04:13:58;100003.47;;;3.20;89.10
70982;BME280;58640;51.320;9.456;2023-04-10T04:16:23;100003.06;;;3.14;89.53
70982;BME280;58640;51.320;9.456;2023-04-10T04:18:49;99994.38;;;3.12;89.75
70982;BME280;58640;51.320;9.456;2023-04-10T04:21:14;100000.19;;;3.17;89.17
70982;BME280;58640;51.320;9.456;2023-04-10T04:23:40;99992.31;;;3.15;88.96
70982;BME280;58640;51.320;9.456;2023-04-10T04:26:05;99995.91;;;3.03;89.78
70982;BME280;58640;51.320;9.456;2023-04-10T04:28:31;100000.03;;;3.07;89.48
70982;BME280;58640;51.320;9.456;2023-04-10T04:30:56;99997.59;;;3.04;89.63
70982;BME280;58640;51.320;9.456;2023-04-10T04:33:21;100007.97;;;2.96;90.18
70982;BME280;58640;51.320;9.456;2023-04-10T04:35:47;100010.16;;;3.02;90.02
70982;BME280;58640;51.320;9.456;2023-04-10T04:38:13;100010.50;;;2.97;89.83
70982;BME280;58640;51.320;9.456;2023-04-10T04:40:40;100012.88;;;2.89;90.74
70982;BME280;58640;51.320;9.456;2023-04-10T04:43:06;99998.97;;;2.86;91.46
70982;BME280;58640;51.320;9.456;2023-04-10T04:45:31;100007.09;;;2.95;91.34
70982;BME280;58640;51.320;9.456;2023-04-10T04:47:56;100008.47;;;3.01;90.29
70982;BME280;58640;51.320;9.456;2023-04-10T04:50:22;100007.59;;;3.00;89.97
70982;BME280;58640;51.320;9.456;2023-04-10T04:52:47;100002.06;;;3.03;89.77
70982;BME280;58640;51.320;9.456;2023-04-10T04:55:13;100009.22;;;3.03;89.70
70982;BME280;58640;51.320;9.456;2023-04-10T04:57:38;100014.41;;;3.05;89.40
70982;BME280;58640;51.320;9.456;2023-04-10T05:00:04;100022.41;;;3.16;88.99
70982;BME280;58640;51.320;9.456;2023-04-10T05:02:30;100012.72;;;3.15;88.65
70982;BME280;58640;51.320;9.456;2023-04-10T05:04:55;100013.38;;;3.29;88.37
70982;BME280;58640;51.320;9.456;2023-04-10T05:07:21;100004.47;;;3.30;88.37
70982;BME280;58640;51.320;9.456;2023-04-10T05:09:46;100007.88;;;3.43;87.67
70982;BME280;58640;51.320;9.456;2023-04-10T05:12:11;100020.38;;;3.54;86.88
70982;BME280;58640;51.320;9.456;2023-04-10T05:14:37;100021.69;;;3.59;86.65
70982;BME280;58640;51.320;9.456;2023-04-10T05:17:02;100018.22;;;3.70;86.19
70982;BME280;58640;51.320;9.456;2023-04-10T05:19:27;100018.13;;;3.82;85.66
70982;BME280;58640;51.320;9.456;2023-04-10T05:21:53;100017.75;;;3.87;85.02
70982;BME280;58640;51.320;9.456;2023-04-10T05:24:18;100022.59;;;3.93;85.18
70982;BME280;58640;51.320;9.456;2023-04-10T05:26:43;100020.28;;;3.99;83.91
70982;BME280;58640;51.320;9.456;2023-04-10T05:29:09;100025.50;;;4.12;84.88
70982;BME280;58640;51.320;9.456;2023-04-10T05:31:34;100020.16;;;4.01;84.59
70982;BME280;58640;51.320;9.456;2023-04-10T05:33:59;100019.09;;;4.14;84.61
70982;BME280;58640;51.320;9.456;2023-04-10T05:36:25;100026.34;;;4.12;84.57
70982;BME280;58640;51.320;9.456;2023-04-10T05:38:51;100023.44;;;4.15;84.79
70982;BME280;58640;51.320;9.456;2023-04-10T05:41:16;100031.44;;;4.26;84.48
70982;BME280;58640;51.320;9.456;2023-04-10T05:43:41;100028.63;;;4.39;83.74
70982;BME280;58640;51.320;9.456;2023-04-10T05:46:07;100029.69;;;4.59;83.14
70982;BME280;58640;51.320;9.456;2023-04-10T05:48:32;100028.94;;;4.79;81.96
70982;BME280;58640;51.320;9.456;2023-04-10T05:50:57;100028.91;;;4.90;82.07
70982;BME280;58640;51.320;9.456;2023-04-10T05:53:27;100023.47;;;4.91;81.30
70982;BME280;58640;51.320;9.456;2023-04-10T05:55:55;100024.50;;;5.31;78.92
70982;BME280;58640;51.320;9.456;2023-04-10T05:58:21;100035.69;;;5.46;79.49
70982;BME280;58640;51.320;9.456;2023-04-10T06:00:46;100033.03;;;5.46;79.45
70982;BME280;58640;51.320;9.456;2023-04-10T06:03:11;100039.16;;;5.78;78.60
70982;BME280;58640;51.320;9.456;2023-04-10T06:05:37;100040.09;;;5.88;78.50
70982;BME280;58640;51.320;9.456;2023-04-10T06:08:02;100037.69;;;6.06;77.22
70982;BME280;58640;51.320;9.456;2023-04-10T06:10:30;100037.81;;;6.04;77.50
70982;BME280;58640;51.320;9.456;2023-04-10T06:12:56;100038.28;;;5.88;78.83
70982;BME280;58640;51.320;9.456;2023-04-10T06:15:21;100038.34;;;5.98;78.07
70982;BME280;58640;51.320;9.456;2023-04-10T06:17:47;100038.25;;;6.39;76.72
70982;BME280;58640;51.320;9.456;2023-04-10T06:20:12;100027.75;;;6.47;76.26
70982;BME280;58640;51.320;9.456;2023-04-10T06:22:37;100029.44;;;6.58;76.25
70982;BME280;58640;51.320;9.456;2023-04-10T06:25:03;100027.97;;;6.84;75.04
70982;BME280;58640;51.320;9.456;2023-04-10T06:27:29;100029.97;;;7.10;73.89
70982;BME280;58640;51.320;9.456;2023-04-10T06:29:55;100033.78;;;7.46;72.50
70982;BME280;58640;51.320;9.456;2023-04-10T06:32:20;100030.53;;;7.62;71.39
70982;BME280;58640;51.320;9.456;2023-04-10T06:34:46;100025.84;;;8.38;69.08
70982;BME280;58640;51.320;9.456;2023-04-10T06:37:11;100017.88;;;8.56;67.67
70982;BME280;58640;51.320;9.456;2023-04-10T06:39:36;100014.41;;;8.90;66.86
70982;BME280;58640;51.320;9.456;2023-04-10T06:42:03;100010.34;;;8.86;66.91
70982;BME280;58640;51.320;9.456;2023-04-10T06:44:28;100003.94;;;9.15;65.84
70982;BME280;58640;51.320;9.456;2023-04-10T06:46:54;100006.03;;;9.64;63.37
70982;BME280;58640;51.320;9.456;2023-04-10T06:49:20;100000.22;;;9.68;63.15
70982;BME280;58640;51.320;9.456;2023-04-10T06:51:45;100004.84;;;10.27;61.12
70982;BME280;58640;51.320;9.456;2023-04-10T06:54:12;99998.22;;;10.55;60.34
70982;BME280;58640;51.320;9.456;2023-04-10T06:56:38;100005.47;;;10.55;60.21
70982;BME280;58640;51.320;9.456;2023-04-10T06:59:03;100005.19;;;10.32;59.92
70982;BME280;58640;51.320;9.456;2023-04-10T07:01:29;100010.06;;;10.28;60.18
70982;BME280;58640;51.320;9.456;2023-04-10T07:03:54;100006.00;;;11.32;56.00
70982;BME280;58640;51.320;9.456;2023-04-10T07:06:20;100004.03;;;11.98;54.33
70982;BME280;58640;51.320;9.456;2023-04-10T07:08:47;100004.84;;;13.31;50.95
70982;BME280;58640;51.320;9.456;2023-04-10T07:11:12;100005.81;;;15.98;45.21
70982;BME280;58640;51.320;9.456;2023-04-10T07:13:38;99996.44;;;18.28;38.65
70982;BME280;58640;51.320;9.456;2023-04-10T07:16:04;99999.69;;;18.82;36.37
70982;BME280;58640;51.320;9.456;2023-04-10T07:18:30;99993.59;;;19.31;35.64
70982;BME280;58640;51.320;9.456;2023-04-10T07:20:55;99997.81;;;19.65;33.94
70982;BME280;58640;51.320;9.456;2023-04-10T07:23:21;99985.84;;;18.84;35.18
70982;BME280;58640;51.320;9.456;2023-04-10T07:25:46;99999.19;;;16.35;40.40
70982;BME280;58640;51.320;9.456;2023-04-10T07:28:12;99989.50;;;14.93;43.62
70982;BME280;58640;51.320;9.456;2023-04-10T07:30:37;99986.63;;;14.21;45.80
70982;BME280;58640;51.320;9.456;2023-04-10T07:33:02;99988.44;;;13.92;47.81
70982;BME280;58640;51.320;9.456;2023-04-10T07:35:28;99988.09;;;13.72;47.58
70982;BME280;58640;51.320;9.456;2023-04-10T07:37:53;99989.28;;;13.92;46.99
70982;BME280;58640;51.320;9.456;2023-04-10T07:40:19;99992.56;;;13.88;47.59
70982;BME280;58640;51.320;9.456;2023-04-10T07:42:44;99992.16;;;16.40;42.67
70982;BME280;58640;51.320;9.456;2023-04-10T07:45:10;99992.84;;;18.34;37.71
70982;BME280;58640;51.320;9.456;2023-04-10T07:47:36;99981.78;;;18.42;36.76
70982;BME280;58640;51.320;9.456;2023-04-10T07:50:01;99979.06;;;17.97;37.98
70982;BME280;58640;51.320;9.456;2023-04-10T07:52:27;99969.34;;;17.29;38.40
70982;BME280;58640;51.320;9.456;2023-04-10T07:54:52;99962.53;;;16.86;40.25
70982;BME280;58640;51.320;9.456;2023-04-10T07:57:18;99966.84;;;16.05;42.04
70982;BME280;58640;51.320;9.456;2023-04-10T07:59:43;99963.81;;;15.94;42.94
70982;BME280;58640;51.320;9.456;2023-04-10T08:02:08;99957.03;;;15.35;43.90
70982;BME280;58640;51.320;9.456;2023-04-10T08:04:34;99955.56;;;15.53;43.69
70982;BME280;58640;51.320;9.456;2023-04-10T08:07:00;99965.97;;;15.50;44.78
70982;BME280;58640;51.320;9.456;2023-04-10T08:09:25;99964.63;;;15.88;43.05
70982;BME280;58640;51.320;9.456;2023-04-10T08:11:51;99953.78;;;15.39;44.47
70982;BME280;58640;51.320;9.456;2023-04-10T08:14:16;99954.72;;;15.53;43.63
70982;BME280;58640;51.320;9.456;2023-04-10T08:16:41;99940.72;;;16.39;43.09
70982;BME280;58640;51.320;9.456;2023-04-10T08:19:07;99944.25;;;15.98;44.64
70982;BME280;58640;51.320;9.456;2023-04-10T08:21:32;99940.59;;;16.13;41.57
70982;BME280;58640;51.320;9.456;2023-04-10T08:24:01;99929.63;;;16.27;39.83
70982;BME280;58640;51.320;9.456;2023-04-10T08:26:27;99935.53;;;16.44;40.01
70982;BME280;58640;51.320;9.456;2023-04-10T08:28:56;99929.63;;;16.68;39.83
70982;BME280;58640;51.320;9.456;2023-04-10T08:31:23;99927.09;;;16.60;40.05
70982;BME280;58640;51.320;9.456;2023-04-10T08:33:48;99931.13;;;16.70;39.58
70982;BME280;58640;51.320;9.456;2023-04-10T08:36:14;99926.50;;;16.71;40.41
70982;BME280;58640;51.320;9.456;2023-04-10T08:38:44;99916.47;;;16.65;39.43
70982;BME280;58640;51.320;9.456;2023-04-10T08:41:14;99914.00;;;16.76;40.94
70982;BME280;58640;51.320;9.456;2023-04-10T08:43:40;99914.25;;;16.88;40.45
70982;BME280;58640;51.320;9.456;2023-04-10T08:46:06;99912.38;;;16.95;38.56
70982;BME280;58640;51.320;9.456;2023-04-10T08:51:14;99905.91;;;16.89;39.00
70982;BME280;58640;51.320;9.456;2023-04-10T08:53:42;99910.84;;;17.52;37.91
70982;BME280;58640;51.320;9.456;2023-04-10T08:56:11;99912.91;;;17.37;39.07
70982;BME280;58640;51.320;9.456;2023-04-10T08:58:38;99896.25;;;16.87;38.76
70982;BME280;58640;51.320;9.456;2023-04-10T09:01:05;99894.44;;;17.00;38.82
70982;BME280;58640;51.320;9.456;2023-04-10T09:03:31;99897.03;;;17.74;37.03
70982;BME280;58640;51.320;9.456;2023-04-10T09:06:00;99896.34;;;17.26;38.01
70982;BME280;58640;51.320;9.456;2023-04-10T09:08:26;99886.13;;;17.47;37.60
70982;BME280;58640;51.320;9.456;2023-04-10T09:10:51;99885.72;;;17.37;37.71
70982;BME280;58640;51.320;9.456;2023-04-10T09:13:34;99871.69;;;17.34;37.82
70982;BME280;58640;51.320;9.456;2023-04-10T09:16:00;99875.63;;;17.18;37.99
70982;BME280;58640;51.320;9.456;2023-04-10T09:18:45;99866.44;;;17.13;37.01
70982;BME280;58640;51.320;9.456;2023-04-10T09:21:19;99863.28;;;17.16;37.43
70982;BME280;58640;51.320;9.456;2023-04-10T09:23:46;99861.59;;;16.95;36.26
70982;BME280;58640;51.320;9.456;2023-04-10T09:26:26;99847.41;;;17.26;36.36
70982;BME280;58640;51.320;9.456;2023-04-10T09:31:37;99839.66;;;16.97;36.46
70982;BME280;58640;51.320;9.456;2023-04-10T09:34:19;99830.88;;;17.01;36.95
70982;BME280;58640;51.320;9.456;2023-04-10T09:36:58;99824.41;;;17.28;35.83
70982;BME280;58640;51.320;9.456;2023-04-10T09:41:57;99829.22;;;17.13;36.64
70982;BME280;58640;51.320;9.456;2023-04-10T09:44:33;99816.44;;;17.07;37.51
70982;BME280;58640;51.320;9.456;2023-04-10T09:47:16;99809.34;;;17.65;35.51
70982;BME280;58640;51.320;9.456;2023-04-10T09:52:27;99800.56;;;17.24;35.99
70982;BME280;58640;51.320;9.456;2023-04-10T09:54:55;99806.03;;;17.50;37.38
70982;BME280;58640;51.320;9.456;2023-04-10T09:57:21;99790.09;;;17.01;37.18
70982;BME280;58640;51.320;9.456;2023-04-10T09:59:48;99804.53;;;17.67;35.61
70982;BME280;58640;51.320;9.456;2023-04-10T10:02:16;99797.16;;;16.70;37.17
70982;BME280;58640;51.320;9.456;2023-04-10T10:04:44;99783.19;;;17.31;36.34
70982;BME280;58640;51.320;9.456;2023-04-10T10:07:11;99766.66;;;17.26;37.87
70982;BME280;58640;51.320;9.456;2023-04-10T10:09:36;99787.00;;;17.50;37.43
70982;BME280;58640;51.320;9.456;2023-04-10T10:12:03;99766.88;;;17.31;36.88
70982;BME280;58640;51.320;9.456;2023-04-10T10:14:30;99771.03;;;16.49;37.71
70982;BME280;58640;51.320;9.456;2023-04-10T10:17:00;99778.38;;;16.75;36.97
70982;BME280;58640;51.320;9.456;2023-04-10T10:19:30;99755.78;;;16.61;37.73
70982;BME280;58640;51.320;9.456;2023-04-10T10:21:59;99761.59;;;16.45;37.89
70982;BME280;58640;51.320;9.456;2023-04-10T10:24:26;99765.38;;;16.51;37.50
70982;BME280;58640;51.320;9.456;2023-04-10T10:26:53;99756.25;;;16.91;37.49
70982;BME280;58640;51.320;9.456;2023-04-10T10:29:22;99741.81;;;17.23;36.89
70982;BME280;58640;51.320;9.456;2023-04-10T10:31:48;99736.75;;;17.33;36.48
70982;BME280;58640;51.320;9.456;2023-04-10T10:34:14;99731.31;;;17.26;36.30
70982;BME280;58640;51.320;9.456;2023-04-10T10:36:40;99742.63;;;17.23;36.11
70982;BME280;58640;51.320;9.456;2023-04-10T10:39:24;99735.31;;;16.98;36.94
70982;BME280;58640;51.320;9.456;2023-04-10T10:42:12;99728.00;;;17.24;36.56
70982;BME280;58640;51.320;9.456;2023-04-10T10:44:47;99722.72;;;17.56;36.13
70982;BME280;58640;51.320;9.456;2023-04-10T10:47:16;99712.28;;;17.33;36.49
70982;BME280;58640;51.320;9.456;2023-04-10T10:50:02;99705.41;;;17.17;36.74
70982;BME280;58640;51.320;9.456;2023-04-10T10:57:48;99696.41;;;17.23;36.34
70982;BME280;58640;51.320;9.456;2023-04-10T11:00:15;99684.22;;;17.52;36.01
70982;BME280;58640;51.320;9.456;2023-04-10T11:02:40;99694.97;;;17.08;37.21
70982;BME280;58640;51.320;9.456;2023-04-10T11:05:06;99672.00;;;17.04;37.33
70982;BME280;58640;51.320;9.456;2023-04-10T11:11:06;99652.69;;;17.25;36.40
70982;BME280;58640;51.320;9.456;2023-04-10T11:13:33;99654.22;;;16.82;37.59
70982;BME280;58640;51.320;9.456;2023-04-10T11:16:00;99645.69;;;16.85;37.35
70982;BME280;58640;51.320;9.456;2023-04-10T11:21:11;99629.03;;;17.45;37.09
70982;BME280;58640;51.320;9.456;2023-04-10T11:24:00;99627.06;;;16.82;36.97
70982;BME280;58640;51.320;9.456;2023-04-10T11:28:57;99624.97;;;16.97;36.37
70982;BME280;58640;51.320;9.456;2023-04-10T11:31:23;99616.25;;;16.62;36.95
70982;BME280;58640;51.320;9.456;2023-04-10T11:33:59;99609.31;;;16.86;36.43
70982;BME280;58640;51.320;9.456;2023-04-10T11:36:25;99612.88;;;16.93;36.16
70982;BME280;58640;51.320;9.456;2023-04-10T11:38:59;99594.28;;;16.77;36.35
70982;BME280;58640;51.320;9.456;2023-04-10T11:41:29;99594.88;;;16.79;35.93
70982;BME280;58640;51.320;9.456;2023-04-10T11:43:57;99593.84;;;16.34;35.61
70982;BME280;58640;51.320;9.456;2023-04-10T11:46:22;99585.91;;;16.39;35.80
70982;BME280;58640;51.320;9.456;2023-04-10T11:48:55;99588.41;;;16.28;35.96
70982;BME280;58640;51.320;9.456;2023-04-10T11:51:21;99577.56;;;16.34;35.93
70982;BME280;58640;51.320;9.456;2023-04-10T11:53:46;99570.28;;;16.54;35.92
70982;BME280;58640;51.320;9.456;2023-04-10T11:56:19;99557.94;;;16.71;35.57
70982;BME280;58640;51.320;9.456;2023-04-10T11:58:48;99558.53;;;16.80;35.18
70982;BME280;58640;51.320;9.456;2023-04-10T12:01:13;99574.22;;;16.65;35.83
70982;BME280;58640;51.320;9.456;2023-04-10T12:03:41;99557.09;;;16.71;35.81
70982;BME280;58640;51.320;9.456;2023-04-10T12:06:11;99544.16;;;16.47;36.07
70982;BME280;58640;51.320;9.456;2023-04-10T12:08:41;99537.28;;;16.51;36.15
70982;BME280;58640;51.320;9.456;2023-04-10T12:11:09;99532.66;;;16.64;35.68
70982;BME280;58640;51.320;9.456;2023-04-10T12:13:34;99553.53;;;16.83;37.83
70982;BME280;58640;51.320;9.456;2023-04-10T12:16:04;99528.50;;;16.55;35.98
70982;BME280;58640;51.320;9.456;2023-04-10T12:18:31;99528.72;;;16.54;36.46
70982;BME280;58640;51.320;9.456;2023-04-10T12:20:57;99523.88;;;16.69;37.01
70982;BME280;58640;51.320;9.456;2023-04-10T12:23:24;99515.16;;;16.47;36.39
70982;BME280;58640;51.320;9.456;2023-04-10T12:25:50;99515.75;;;16.43;35.98
70982;BME280;58640;51.320;9.456;2023-04-10T12:28:20;99518.69;;;16.35;35.74
70982;BME280;58640;51.320;9.456;2023-04-10T12:30:49;99517.41;;;16.70;35.35
70982;BME280;58640;51.320;9.456;2023-04-10T12:33:21;99512.31;;;16.93;35.89
70982;BME280;58640;51.320;9.456;2023-04-10T12:35:47;99520.88;;;16.90;36.38
70982;BME280;58640;51.320;9.456;2023-04-10T12:38:12;99503.00;;;16.56;35.14
70982;BME280;58640;51.320;9.456;2023-04-10T12:40:56;99505.69;;;16.69;35.55
70982;BME280;58640;51.320;9.456;2023-04-10T12:43:38;99510.84;;;16.90;35.31
70982;BME280;58640;51.320;9.456;2023-04-10T12:46:05;99501.31;;;16.75;34.77
70982;BME280;58640;51.320;9.456;2023-04-10T12:48:31;99496.97;;;17.11;34.43
70982;BME280;58640;51.320;9.456;2023-04-10T12:50:57;99496.31;;;17.16;35.01
70982;BME280;58640;51.320;9.456;2023-04-10T12:53:23;99497.38;;;17.15;34.46
70982;BME280;58640;51.320;9.456;2023-04-10T12:56:15;99489.47;;;17.07;34.45
70982;BME280;58640;51.320;9.456;2023-04-10T12:58:42;99493.09;;;17.32;35.82
70982;BME280;58640;51.320;9.456;2023-04-10T13:01:08;99480.97;;;17.72;34.29
70982;BME280;58640;51.320;9.456;2023-04-10T13:03:34;99483.06;;;17.32;33.93
70982;BME280;58640;51.320;9.456;2023-04-10T13:06:06;99480.53;;;17.37;33.28
70982;BME280;58640;51.320;9.456;2023-04-10T13:08:32;99479.03;;;17.41;33.23
70982;BME280;58640;51.320;9.456;2023-04-10T13:10:58;99473.28;;;17.63;33.81
70982;BME280;58640;51.320;9.456;2023-04-10T13:13:31;99469.59;;;17.44;34.44
70982;BME280;58640;51.320;9.456;2023-04-10T13:15:57;99465.25;;;17.74;32.30
70982;BME280;58640;51.320;9.456;2023-04-10T13:18:22;99463.06;;;17.58;32.79
70982;BME280;58640;51.320;9.456;2023-04-10T13:20:48;99472.75;;;17.47;34.02
70982;BME280;58640;51.320;9.456;2023-04-10T13:23:13;99462.97;;;17.33;34.40
70982;BME280;58640;51.320;9.456;2023-04-10T13:25:39;99460.75;;;17.24;33.23
70982;BME280;58640;51.320;9.456;2023-04-10T13:28:07;99450.63;;;17.37;33.10
70982;BME280;58640;51.320;9.456;2023-04-10T13:30:40;99435.34;;;17.36;34.26
70982;BME280;58640;51.320;9.456;2023-04-10T13:33:06;99450.31;;;17.21;34.40
70982;BME280;58640;51.320;9.456;2023-04-10T13:35:32;99450.22;;;17.34;33.53